createdAt,value
2018-11-26T00:04:01.069Z,1.20
2018-11-26T00:08:05.729Z,1.33
2018-11-26T00:12:10.298Z,1.60
2018-11-26T00:16:14.499Z,0.53
2018-11-26T00:20:19.005Z,1.50
2018-11-26T00:24:23.401Z,1.30
2018-11-26T00:28:28.205Z,1.83
2018-11-26T00:32:32.642Z,1.27
2018-11-26T00:36:36.965Z,0.90
2018-11-26T00:40:41.747Z,1.10
2018-11-26T00:44:45.972Z,2.20
2018-11-26T00:48:50.414Z,1.20
2018-11-26T00:52:54.810Z,1.03
2018-11-26T00:56:59.040Z,1.90
2018-11-26T01:01:03.361Z,1.40
2018-11-26T01:05:08.187Z,1.90
2018-11-26T01:09:12.634Z,1.30
2018-11-26T01:13:16.922Z,1.83
2018-11-26T01:17:21.147Z,1.13
2018-11-26T01:21:29.169Z,1.23
2018-11-26T01:25:33.520Z,2.03
2018-11-26T01:29:40.180Z,1.10
2018-11-26T01:33:44.442Z,1.20
2018-11-26T01:37:48.791Z,1.00
2018-11-26T01:41:53.414Z,1.90
2018-11-26T01:45:57.747Z,1.17
2018-11-26T01:50:02.142Z,1.20
2018-11-26T01:54:07.263Z,1.40
2018-11-26T01:58:11.868Z,1.40
2018-11-26T02:02:17.335Z,1.90
2018-11-26T02:06:21.787Z,1.30
2018-11-26T02:10:26.100Z,1.57
2018-11-26T02:14:30.317Z,1.50
2018-11-26T02:18:34.751Z,1.73
2018-11-26T02:22:39.626Z,0.83
2018-11-26T02:26:44.029Z,0.90
2018-11-26T02:30:48.284Z,1.60
2018-11-26T02:34:52.658Z,1.00
2018-11-26T02:38:56.985Z,1.50
2018-11-26T02:43:01.390Z,1.40
2018-11-26T02:47:06.361Z,0.93
2018-11-26T02:51:10.809Z,1.23
2018-11-26T02:55:15.084Z,1.43
2018-11-26T02:59:19.332Z,1.23
2018-11-26T03:03:23.491Z,2.60
2018-11-26T03:07:27.823Z,1.60
2018-11-26T03:11:32.286Z,3.23
2018-11-26T03:15:36.558Z,0.90
2018-11-26T03:19:40.839Z,3.10
2018-11-26T03:23:45.430Z,2.27
2018-11-26T03:27:49.844Z,1.00
2018-11-26T03:31:54.397Z,0.60
2018-11-26T03:35:58.615Z,2.27
2018-11-26T03:40:02.953Z,1.37
2018-11-26T03:44:07.797Z,0.63
2018-11-26T03:48:12.105Z,1.83
2018-11-26T03:52:16.746Z,1.20
2018-11-26T03:56:21.209Z,1.57
2018-11-26T04:00:29.132Z,1.40
2018-11-26T04:04:33.410Z,1.40
2018-11-26T04:08:40.098Z,0.90
2018-11-26T04:12:44.577Z,0.97
2018-11-26T04:16:49.094Z,1.90
2018-11-26T04:20:53.401Z,1.73
2018-11-26T04:24:57.644Z,1.30
2018-11-26T04:29:01.945Z,1.63
2018-11-26T04:33:06.417Z,1.90
2018-11-26T04:37:10.712Z,1.07
2018-11-26T04:41:18.566Z,1.63
2018-11-26T04:45:23.540Z,1.37
2018-11-26T04:49:28.133Z,1.27
2018-11-26T04:53:32.589Z,1.87
2018-11-26T04:57:42.113Z,2.50
2018-11-26T05:01:41.259Z,2.50
2018-11-26T05:05:45.781Z,2.83
2018-11-26T05:09:50.093Z,1.30
2018-11-26T05:13:54.600Z,0.87
2018-11-26T05:17:58.960Z,1.93
2018-11-26T05:22:04.384Z,1.62
2018-11-26T05:26:13.735Z,2.60
2018-11-26T05:30:17.969Z,1.70
2018-11-26T05:34:22.412Z,1.10
2018-11-26T05:38:26.913Z,1.33
2018-11-26T05:42:31.491Z,1.40
2018-11-26T05:46:35.910Z,2.00
2018-11-26T05:50:40.194Z,1.50
2018-11-26T05:54:44.521Z,2.30
2018-11-26T05:58:49.026Z,2.10
2018-11-26T06:02:53.220Z,1.67
2018-11-26T06:06:57.522Z,2.00
2018-11-26T06:11:01.731Z,1.00
2018-11-26T06:15:09.319Z,1.73
2018-11-26T06:19:13.900Z,1.07
2018-11-26T06:23:18.458Z,1.00
2018-11-26T06:27:22.944Z,1.23
2018-11-26T06:31:27.682Z,1.63
2018-11-26T06:35:32.108Z,2.03
2018-11-26T06:39:36.417Z,2.10
2018-11-26T06:43:40.669Z,2.90
2018-11-26T06:47:45.542Z,1.73
2018-11-26T06:51:49.705Z,1.43
2018-11-26T06:55:54.491Z,1.77
2018-11-26T06:59:59.029Z,1.90
2018-11-26T07:04:03.458Z,1.77
2018-11-26T07:08:07.767Z,1.93
2018-11-26T07:12:12.441Z,1.43
2018-11-26T07:16:17.070Z,1.43
2018-11-26T07:20:22.191Z,1.97
2018-11-26T07:24:26.943Z,1.80
2018-11-26T07:28:31.406Z,1.73
2018-11-26T07:32:35.737Z,3.13
2018-11-26T07:36:40.198Z,2.27
2018-11-26T07:40:47.064Z,1.43
2018-11-26T07:44:52.462Z,2.50
2018-11-26T07:48:56.865Z,1.30
2018-11-26T07:53:01.192Z,2.30
2018-11-26T07:57:05.629Z,0.80
2018-11-26T08:01:19.179Z,1.00
2018-11-26T08:05:24.251Z,1.10
2018-11-26T08:09:28.802Z,2.08
2018-11-26T08:13:33.056Z,1.70
2018-11-26T08:17:46.249Z,1.07
2018-11-26T08:21:50.771Z,2.10
2018-11-26T08:25:55.095Z,1.53
2018-11-26T08:29:59.412Z,1.50
2018-11-26T08:34:03.799Z,0.80
2018-11-26T08:38:08.139Z,0.97
2018-11-26T08:42:17.501Z,0.87
2018-11-26T08:46:27.061Z,1.80
2018-11-26T08:50:31.184Z,0.40
2018-11-26T08:54:35.698Z,0.40
2018-11-26T08:58:39.877Z,0.70
2018-11-26T09:02:48.705Z,0.83
2018-11-26T09:06:52.869Z,0.87
2018-11-26T09:10:57.137Z,0.50
2018-11-26T09:15:01.328Z,0.87
2018-11-26T09:19:06.069Z,1.13
2018-11-26T09:23:10.287Z,0.67
2018-11-26T09:27:14.638Z,0.57
2018-11-26T09:31:18.837Z,0.60
2018-11-26T09:35:23.086Z,0.50
2018-11-26T09:39:27.249Z,0.30
2018-11-26T09:43:31.429Z,0.50
2018-11-26T09:47:35.645Z,0.40
2018-11-26T09:51:42.163Z,1.30
2018-11-26T09:55:44.461Z,0.73
2018-11-26T09:59:48.925Z,0.50
2018-11-26T10:03:54.277Z,1.00
2018-11-26T10:07:58.757Z,0.60
2018-11-26T10:12:02.974Z,0.50
2018-11-26T10:16:07.985Z,0.47
2018-11-26T10:20:12.837Z,0.63
2018-11-26T10:24:17.265Z,0.50
2018-11-26T10:28:21.511Z,0.60
2018-11-26T10:32:26.307Z,0.80
2018-11-26T10:36:30.571Z,0.80
2018-11-26T10:40:35.102Z,0.50
2018-11-26T10:44:39.482Z,0.63
2018-11-26T10:48:43.661Z,0.87
2018-11-26T10:52:50.269Z,0.30
2018-11-26T10:56:54.474Z,0.60
2018-11-26T11:01:02.421Z,0.30
2018-11-26T11:05:07.405Z,0.40
2018-11-26T11:09:11.687Z,0.43
2018-11-26T11:13:16.062Z,0.77
2018-11-26T11:17:20.580Z,0.50
2018-11-26T11:21:25.093Z,0.67
2018-11-26T11:25:29.508Z,0.30
2018-11-26T11:29:34.860Z,0.60
2018-11-26T11:33:39.062Z,0.50
2018-11-26T11:37:43.970Z,0.47
2018-11-26T11:41:48.366Z,1.13
2018-11-26T11:45:52.855Z,0.60
2018-11-26T11:49:57.206Z,0.40
2018-11-26T11:54:01.414Z,0.93
2018-11-26T11:58:05.934Z,0.70
2018-11-26T12:02:15.983Z,0.63
2018-11-26T12:06:17.086Z,0.60
2018-11-26T12:10:21.659Z,0.80
2018-11-26T12:14:25.869Z,0.57
2018-11-26T12:18:30.421Z,0.97
2018-11-26T12:22:34.758Z,0.60
2018-11-26T12:26:39.360Z,0.40
2018-11-26T12:30:45.519Z,0.40
2018-11-26T12:34:49.905Z,0.40
2018-11-26T12:38:54.126Z,0.37
2018-11-26T12:42:59.539Z,0.40
2018-11-26T12:47:03.743Z,0.40
2018-11-26T12:51:08.053Z,0.77
2018-11-26T12:55:14.458Z,0.40
2018-11-26T12:59:18.801Z,0.73
2018-11-26T13:03:22.935Z,0.40
2018-11-26T13:07:27.487Z,0.80
2018-11-26T13:11:31.787Z,0.80
2018-11-26T13:15:36.092Z,1.17
2018-11-26T13:19:40.353Z,0.53
2018-11-26T13:23:44.642Z,0.47
2018-11-26T13:27:53.150Z,0.50
2018-11-26T13:31:57.515Z,0.50
2018-11-26T13:36:01.887Z,0.40
2018-11-26T13:40:09.182Z,0.50
2018-11-26T13:44:13.378Z,2.13
2018-11-26T13:48:18.592Z,0.60
2018-11-26T13:52:22.838Z,0.77
2018-11-26T13:56:27.074Z,0.83
2018-11-26T14:00:31.258Z,0.40
2018-11-26T14:04:35.538Z,3.00
2018-11-26T14:08:39.795Z,1.47
2018-11-26T14:12:44.555Z,1.80
2018-11-26T14:16:48.834Z,0.60
2018-11-26T14:20:53.232Z,0.50
2018-11-26T14:24:57.741Z,0.70
2018-11-26T14:29:01.941Z,0.90
2018-11-26T14:33:07.048Z,1.13
2018-11-26T14:37:11.214Z,1.60
2018-11-26T14:41:15.730Z,1.00
2018-11-26T14:45:19.950Z,0.60
2018-11-26T14:49:24.184Z,0.70
2018-11-26T14:53:28.657Z,1.27
2018-11-26T14:57:32.833Z,0.83
2018-11-26T15:01:37.403Z,0.78
2018-11-26T15:05:42.147Z,0.70
2018-11-26T15:09:46.425Z,0.50
2018-11-26T15:13:50.618Z,1.93
2018-11-26T15:17:55.141Z,0.60
2018-11-26T15:21:59.562Z,1.30
2018-11-26T15:26:04.059Z,0.90
2018-11-26T15:30:12.027Z,0.60
2018-11-26T15:34:16.302Z,1.17
2018-11-26T15:38:20.633Z,0.90
2018-11-26T15:42:25.113Z,0.30
2018-11-26T15:46:29.321Z,0.40
2018-11-26T15:50:33.888Z,0.97
2018-11-26T15:54:38.325Z,0.47
2018-11-26T15:58:42.690Z,0.60
2018-11-26T16:02:47.291Z,0.30
2018-11-26T16:06:51.815Z,0.90
2018-11-26T16:10:56.086Z,0.50
2018-11-26T16:15:00.695Z,0.70
2018-11-26T16:19:05.206Z,0.88
2018-11-26T16:23:10.534Z,0.53
2018-11-26T16:27:14.937Z,0.60
2018-11-26T16:31:19.158Z,0.60
2018-11-26T16:35:27.828Z,1.10
2018-11-26T16:39:32.161Z,0.80
2018-11-26T16:43:36.541Z,0.53
2018-11-26T16:47:40.771Z,0.80
2018-11-26T16:51:44.954Z,0.50
2018-11-26T16:55:49.595Z,0.80
2018-11-26T16:59:53.870Z,0.83
2018-11-26T17:03:58.390Z,0.67
2018-11-26T17:08:02.687Z,0.93
2018-11-26T17:12:07.345Z,1.10
2018-11-26T17:16:11.816Z,1.47
2018-11-26T17:20:17.034Z,3.30
2018-11-26T17:24:21.503Z,2.17
2018-11-26T17:28:25.795Z,1.40
2018-11-26T17:32:30.474Z,0.73
2018-11-26T17:36:34.701Z,0.83
2018-11-26T17:40:40.078Z,1.90
2018-11-26T17:44:44.353Z,1.00
2018-11-26T17:48:48.568Z,0.87
2018-11-26T17:52:52.898Z,0.63
2018-11-26T17:56:58.078Z,0.90
2018-11-26T18:01:09.637Z,0.67
2018-11-26T18:05:17.058Z,0.93
2018-11-26T18:09:30.253Z,1.00
2018-11-26T18:13:34.488Z,0.80
2018-11-26T18:17:38.952Z,1.80
2018-11-26T18:21:43.279Z,1.33
2018-11-26T18:25:47.499Z,0.80
2018-11-26T18:29:52.379Z,0.90
2018-11-26T18:33:56.550Z,1.07
2018-11-26T18:38:00.998Z,2.03
2018-11-26T18:42:06.000Z,2.03
2018-11-26T18:46:10.348Z,1.50
2018-11-26T18:50:17.736Z,2.80
2018-11-26T18:54:22.302Z,3.10
2018-11-26T18:58:29.947Z,2.57
2018-11-26T19:02:34.136Z,2.20
2018-11-26T19:06:38.594Z,1.77
2018-11-26T19:10:42.859Z,2.80
2018-11-26T19:14:47.688Z,2.20
2018-11-26T19:18:52.578Z,2.70
2018-11-26T19:22:56.830Z,1.57
2018-11-26T19:28:25.501Z,1.60
2018-11-26T19:32:32.065Z,1.97
2018-11-26T19:36:36.627Z,2.80
2018-11-26T19:40:41.785Z,4.60
2018-11-26T19:44:46.467Z,2.60
2018-11-26T19:48:51.108Z,1.10
2018-11-26T19:52:55.881Z,3.20
2018-11-26T19:57:00.148Z,9.73
2018-11-26T20:01:08.178Z,3.87
2018-11-26T20:05:16.879Z,3.40
2018-11-26T20:09:21.461Z,4.63
2018-11-26T20:13:25.664Z,2.27
2018-11-26T20:17:30.677Z,3.50
2018-11-26T20:21:34.334Z,3.33
2018-11-26T20:25:38.635Z,2.60
2018-11-26T20:29:42.814Z,2.50
2018-11-26T20:33:47.351Z,3.77
2018-11-26T20:37:55.245Z,5.00
2018-11-26T20:41:59.930Z,4.47
2018-11-26T20:46:04.149Z,4.43
2018-11-26T20:50:19.899Z,4.30
2018-11-26T20:54:24.146Z,3.13
2018-11-26T20:58:28.429Z,2.47
2018-11-26T21:02:32.637Z,4.83
2018-11-26T21:06:36.797Z,3.80
2018-11-26T21:10:41.085Z,2.73
2018-11-26T21:14:45.445Z,3.90
2018-11-26T21:18:51.197Z,2.97
2018-11-26T21:22:55.959Z,2.47
2018-11-26T21:27:02.453Z,2.67
2018-11-26T21:31:07.895Z,2.90
2018-11-26T21:35:14.937Z,4.07
2018-11-26T21:39:19.149Z,4.10
2018-11-26T21:43:23.535Z,4.33
2018-11-26T21:47:27.695Z,2.50
2018-11-26T21:51:32.059Z,3.37
2018-11-26T21:55:36.466Z,3.53
2018-11-26T21:59:42.969Z,3.50
2018-11-26T22:03:47.390Z,4.50
2018-11-26T22:07:51.732Z,3.37
2018-11-26T22:11:56.045Z,2.33
2018-11-26T22:20:41.903Z,2.97
2018-11-26T22:33:49.566Z,2.00
2018-11-26T23:27:18.902Z,2.80
2018-11-26T23:31:31.456Z,2.70
2018-11-26T23:40:03.973Z,3.00
2018-11-26T23:44:08.694Z,3.30
2018-11-26T23:48:12.938Z,2.70
2018-11-26T23:52:17.274Z,4.67
2018-11-26T23:56:21.487Z,2.90
